Avon, SD

3:24 AM CDT on October 01, 2014 (GMT -0500)
Tabor - Bares | Change Station
CLOSE
Current Station
Personal Weather Station
Location: Tabor, SD
Elevation: 1355 ft
Nearby Weather Stations

Elev 1355 ft 42.95 °N, 97.66 °W | Updated 1 second ago

Mostly Cloudy
Mostly Cloudy
63.3 °F
Feels Like 63.3 °F
N
2.0
Wind Variable Wind from SSW
Gusts 5.0 mph

Today
High -- | Low -- °F
--% Chance of Precip.
Yesterday
High -- | Low -- °F
Precip. -- in
7:29 AM 7:13 PM
Waxing Crescent, 45% visible
Pressure 29.72 in
Visibility 5.0 miles
Clouds Overcast 800 ft
Dew Point 61 °F
Humidity 92%
Rainfall 0.00 in
Snow Depth Not available.
UV 0 out of 12
Pollen 2.40 out of 12
Air Quality Not available.
Flu Activity Not available.
METAR KYKN 010755Z AUTO 17008KT 5SM OVC008 18/16 A2972 RMK AO1

More Conditions Fewer Conditions

Pressure 29.72 in
Visibility 5.0 miles
Clouds Overcast 800 ft
Dew Point 61 °F
Humidity 92%
Rainfall 0.00 in
Snow Depth Not available.
UV 0 out of 12
Pollen 2.40 out of 12
Air Quality Not available.
Flu Activity Not available.
METAR KYKN 010755Z AUTO 17008KT 5SM OVC008 18/16 A2972 RMK AO1

More Conditions Fewer Conditions

10-Day Weather Forecast

Almanac

Astronomy

Oct. 01, 2014 Rise Set
Actual Time 7:29 AM CDT 7:13 PM CDT
Civil Twilight 7:01 AM CDT 7:41 PM CDT
Nautical Twilight 6:28 AM CDT 8:14 PM CDT
Astronomical Twilight 5:55 AM CDT 8:47 PM CDT
Moon 2:38 PM CDT No Moon Set
Length of Visible Light 12h 40m
Length of Day
11h 43m
Tomorrow will be 2m 54s shorter.
Waxing Crescent, 45% of the Moon is Illuminated
Today
Waxing Crescent
Oct 1
First Quarter
Oct 8
Full
Oct 15
Last Quarter
Oct 23
New

Today's Extremes

State Highs State Lows

Community

WunderPhotos

Upload Photos

1,757,902 photos uploaded!

Nearby

Snow Depth

Station Depth Elevation
North Rapid Creek 0 in 6130 ft
Blind Park 1 in 6890 ft

Earthquake Activity

City Distance Mag. Time & Date
No recent earthquake activity has been reported nearby.
Minimum magnitude displayed is 2.5.

Coastal Water Temperatures

Place Temperature
No Stations Reporting

Nearby Weather Stations